Hovedside
METAR-TAF:

METAR-TAF

Lufthavner :

Tarakan, Indonesia

breddegrad: 03-19-36N, lengdegrad: 117-33-56E, høyde over havet: 6 m

Gjeldene værobservasjon

Denne rapporten ble laget for 36 minutter siden, klokken 03:30 UTC
Vind 5 kt fra Sør-sørvest
Temperatur 32°C
Luftfuktighet 67%
Trykk 1009 hPa
Sikt 10 km eller mer
Spredte skyer i en høyde av 1500 ft

METAR: WAQQ 220330Z 21005KT 9999 SCT015 32/25 Q1009 NOSIG

Tid: 11:06 (04:06 UTC)

Varsel

Denne rapporten ble laget for 5 timer og 6 minutter siden, klokken 23:00 UTC
Varsel gyldig fra 22. klokken 00 UTC til 22. klokken 12 UTC
Vind 5 kt fra Nord
Sikt 10 km eller mer
Få skyer i en høyde av 1500 ft

TAF: WAQQ 212300Z 2200/2212 01005KT 9999 FEW015

Værobservasjoner og værvarsel for over 4000 flyplasser (METAR- og TAF-rapporter).

Tilgjengelige stasjoner er representert av de røde og gule prikkene på kartet.

Hold musepekeren over prikken for å se navnet på stasjonen.

Klikk så for å se værobservasjoner og -varsler.

For å forandre kartet kan du klikke på den grønne knappen med svart kryss for å zoome inn, på den grønne knappen med strek for å zoome ut, eller på de grønne pilene for å se tilstøtende kart.


METAR-TAF: